createdAt,value
2022-08-05T00:01:48.531Z,5.20
2022-08-05T00:04:18.264Z,5.40
2022-08-05T00:06:47.244Z,5.40
2022-08-05T00:09:15.972Z,5.60
2022-08-05T00:11:49.514Z,5.40
2022-08-05T00:14:28.903Z,5.10
2022-08-05T00:16:57.930Z,5.20
2022-08-05T00:19:33.595Z,4.80
2022-08-05T00:22:11.203Z,5.00
2022-08-05T00:24:46.976Z,4.70
2022-08-05T00:27:23.140Z,5.00
2022-08-05T00:30:05.651Z,5.10
2022-08-05T00:32:39.571Z,5.00
2022-08-05T00:35:08.819Z,4.90
2022-08-05T00:37:53.145Z,4.60
2022-08-05T00:40:28.201Z,4.60
2022-08-05T00:42:59.515Z,5.00
2022-08-05T00:45:42.884Z,4.40
2022-08-05T00:48:14.617Z,5.00
2022-08-05T00:50:46.083Z,4.80
2022-08-05T00:54:00.618Z,4.60
2022-08-05T00:56:09.645Z,4.60
2022-08-05T00:58:38.141Z,5.20
2022-08-05T01:01:08.945Z,4.90
2022-08-05T01:03:39.580Z,4.60
2022-08-05T01:06:14.204Z,5.00
2022-08-05T01:08:44.636Z,4.30
2022-08-05T01:11:33.503Z,4.80
2022-08-05T01:14:27.915Z,4.50
2022-08-05T01:17:06.305Z,4.60
2022-08-05T01:20:03.989Z,4.60
2022-08-05T01:22:54.043Z,4.70
2022-08-05T01:25:55.680Z,4.20
2022-08-05T01:28:44.360Z,4.30
2022-08-05T01:31:30.167Z,5.20
2022-08-05T01:34:09.960Z,4.00
2022-08-05T01:36:54.009Z,4.40
2022-08-05T01:39:36.854Z,4.50
2022-08-05T01:42:13.829Z,4.80
2022-08-05T01:44:45.665Z,4.40
2022-08-05T01:47:23.945Z,5.00
2022-08-05T01:50:01.463Z,4.30
2022-08-05T01:52:32.300Z,4.40
2022-08-05T01:55:06.771Z,4.20
2022-08-05T01:58:09.945Z,4.60
2022-08-05T02:00:31.002Z,4.40
2022-08-05T02:03:24.437Z,4.40
2022-08-05T02:05:57.864Z,4.40
2022-08-05T02:08:31.036Z,4.70
2022-08-05T02:11:11.741Z,4.50
2022-08-05T02:14:04.925Z,4.50
2022-08-05T02:16:55.448Z,4.90
2022-08-05T02:19:42.696Z,4.30
2022-08-05T02:22:31.729Z,4.60
2022-08-05T02:25:13.421Z,4.10
2022-08-05T02:27:58.927Z,4.10
2022-08-05T02:30:35.609Z,4.40
2022-08-05T02:33:05.056Z,4.50
2022-08-05T02:35:37.659Z,4.60
2022-08-05T02:38:19.314Z,4.60
2022-08-05T02:40:47.662Z,4.80
2022-08-05T02:43:16.958Z,4.50
2022-08-05T02:45:52.501Z,5.40
2022-08-05T02:48:29.042Z,4.70
2022-08-05T02:51:00.455Z,4.90
2022-08-05T02:53:38.961Z,4.90
2022-08-05T02:56:15.926Z,4.30
2022-08-05T02:58:51.503Z,4.60
2022-08-05T03:01:24.869Z,5.60
2022-08-05T03:04:11.753Z,7.70
2022-08-05T03:06:54.185Z,9.30
2022-08-05T03:09:38.290Z,7.40
2022-08-05T03:12:29.558Z,7.50
2022-08-05T03:14:58.048Z,7.70
2022-08-05T03:17:26.438Z,8.40
2022-08-05T03:19:55.160Z,8.30
2022-08-05T03:22:32.451Z,8.60
2022-08-05T03:25:33.974Z,9.90
2022-08-05T03:27:59.179Z,7.20
2022-08-05T03:30:33.587Z,6.30
2022-08-05T03:33:03.347Z,6.30
2022-08-05T03:35:33.754Z,5.80
2022-08-05T03:38:11.853Z,5.80
2022-08-05T03:40:45.168Z,6.00
2022-08-05T03:44:08.816Z,5.10
2022-08-05T03:46:05.316Z,5.60
2022-08-05T03:48:36.740Z,6.10
2022-08-05T03:52:36.466Z,7.00
2022-08-05T03:55:52.963Z,6.60
2022-08-05T03:57:42.042Z,6.20
2022-08-05T04:00:15.858Z,6.50
2022-08-05T04:02:58.105Z,7.50
2022-08-05T04:05:34.432Z,6.70
2022-08-05T04:08:14.366Z,6.70
2022-08-05T04:10:53.570Z,6.10
2022-08-05T04:13:22.910Z,5.80
2022-08-05T04:16:02.956Z,6.00
2022-08-05T04:18:34.493Z,6.70
2022-08-05T04:21:06.083Z,5.80
2022-08-05T04:23:58.426Z,6.40
2022-08-05T04:26:23.793Z,5.90
2022-08-05T04:28:52.673Z,5.40
2022-08-05T04:31:20.641Z,6.10
2022-08-05T04:34:17.734Z,5.70
2022-08-05T04:36:49.721Z,5.70
2022-08-05T04:39:21.754Z,5.60
2022-08-05T04:41:51.156Z,5.60
2022-08-05T04:44:29.609Z,5.50
2022-08-05T04:46:59.589Z,5.30
2022-08-05T04:49:38.465Z,5.10
2022-08-05T04:52:16.619Z,5.30
2022-08-05T04:54:46.872Z,6.50
2022-08-05T04:57:17.441Z,5.40
2022-08-05T04:59:45.336Z,5.00
2022-08-05T05:02:41.346Z,5.30
2022-08-05T05:05:16.857Z,4.90
2022-08-05T05:08:01.460Z,4.90
2022-08-05T05:10:39.076Z,5.70
2022-08-05T05:13:14.065Z,5.50
2022-08-05T05:15:59.511Z,4.80
2022-08-05T05:18:33.770Z,4.60
2022-08-05T05:21:03.631Z,5.70
2022-08-05T05:24:02.168Z,5.30
2022-08-05T05:26:20.120Z,5.80
2022-08-05T05:28:56.994Z,4.90
2022-08-05T05:31:25.070Z,4.50
2022-08-05T05:33:59.203Z,4.80
2022-08-05T05:36:30.653Z,4.60
2022-08-05T05:39:01.003Z,5.00
2022-08-05T05:41:40.631Z,4.70
2022-08-05T05:44:36.811Z,4.20
2022-08-05T05:47:04.349Z,4.40
2022-08-05T05:49:44.070Z,4.40
2022-08-05T05:52:29.988Z,4.40
2022-08-05T05:55:16.574Z,4.40
2022-08-05T05:57:52.641Z,4.50
2022-08-05T06:00:29.567Z,4.40
2022-08-05T06:03:02.074Z,4.40
2022-08-05T06:05:29.968Z,4.20
2022-08-05T06:08:01.759Z,4.30
2022-08-05T06:10:34.480Z,4.10
2022-08-05T06:13:05.357Z,4.30
2022-08-05T06:16:28.320Z,4.20
2022-08-05T06:18:31.427Z,4.70
2022-08-05T06:21:00.394Z,4.40
2022-08-05T06:23:32.219Z,4.10
2022-08-05T06:26:21.614Z,4.30
2022-08-05T06:28:52.117Z,3.90
2022-08-05T06:31:22.024Z,4.60
2022-08-05T06:34:07.297Z,4.70
2022-08-05T06:36:57.366Z,4.10
2022-08-05T06:39:27.024Z,4.50
2022-08-05T06:42:02.014Z,3.70
2022-08-05T06:44:32.388Z,3.90
2022-08-05T06:47:02.243Z,4.30
2022-08-05T06:50:01.385Z,4.00
2022-08-05T06:52:38.242Z,3.70
2022-08-05T06:55:07.093Z,3.90
2022-08-05T06:57:58.221Z,4.40
2022-08-05T07:00:24.896Z,3.90
2022-08-05T07:03:02.496Z,4.00
2022-08-05T07:05:37.727Z,4.10
2022-08-05T07:08:10.967Z,4.10
2022-08-05T07:10:52.930Z,3.80
2022-08-05T07:13:57.212Z,4.60
2022-08-05T07:18:02.279Z,4.10
2022-08-05T07:22:28.184Z,4.20
2022-08-05T07:25:22.752Z,4.10
2022-08-05T07:27:58.374Z,3.90
2022-08-05T07:30:34.053Z,4.10
2022-08-05T07:33:05.092Z,4.10
2022-08-05T07:36:04.784Z,4.10
2022-08-05T07:38:34.149Z,3.50
2022-08-05T07:42:06.892Z,4.20
2022-08-05T07:43:59.943Z,3.60
2022-08-05T07:46:30.771Z,4.30
2022-08-05T07:49:05.469Z,3.80
2022-08-05T07:51:48.901Z,3.80
2022-08-05T07:54:31.287Z,3.20
2022-08-05T07:57:17.661Z,4.30
2022-08-05T07:59:51.211Z,3.60
2022-08-05T08:02:30.720Z,3.80
2022-08-05T08:05:00.025Z,3.50
2022-08-05T08:07:28.977Z,3.60
2022-08-05T08:10:07.599Z,4.10
2022-08-05T08:12:49.812Z,3.60
2022-08-05T08:15:18.443Z,3.90
2022-08-05T08:18:13.899Z,3.60
2022-08-05T08:21:02.044Z,3.30
2022-08-05T08:24:02.126Z,3.70
2022-08-05T08:26:29.560Z,4.10
2022-08-05T08:29:21.883Z,3.70
2022-08-05T08:31:49.003Z,3.30
2022-08-05T08:34:18.764Z,3.10
2022-08-05T08:37:01.731Z,3.30
2022-08-05T08:39:37.466Z,3.60
2022-08-05T08:42:15.248Z,3.40
2022-08-05T08:45:19.498Z,3.60
2022-08-05T08:48:06.776Z,3.10
2022-08-05T08:51:03.599Z,3.20
2022-08-05T08:53:28.872Z,3.20
2022-08-05T08:56:04.250Z,2.90
2022-08-05T08:58:37.593Z,3.70
2022-08-05T09:01:17.130Z,3.40
2022-08-05T09:03:55.596Z,3.50
2022-08-05T09:06:29.620Z,3.50
2022-08-05T09:09:01.085Z,3.10
2022-08-05T09:14:56.692Z,3.10
2022-08-05T09:17:41.295Z,3.40
2022-08-05T09:20:02.558Z,3.00
2022-08-05T09:23:19.891Z,2.80
2022-08-05T09:26:01.505Z,3.20
2022-08-05T09:28:34.264Z,3.40
2022-08-05T09:31:23.417Z,3.20
2022-08-05T09:34:09.644Z,2.80
2022-08-05T09:36:54.679Z,2.80
2022-08-05T09:39:39.221Z,2.50
2022-08-05T09:42:23.992Z,2.90
2022-08-05T09:44:57.382Z,2.80
2022-08-05T09:47:48.002Z,2.90
2022-08-05T09:50:38.728Z,2.70
2022-08-05T09:53:08.817Z,2.60
2022-08-05T09:55:58.644Z,2.70
2022-08-05T09:58:26.012Z,2.40
2022-08-05T10:01:14.601Z,2.90
2022-08-05T10:04:00.667Z,2.70
2022-08-05T10:06:29.285Z,2.40
2022-08-05T10:09:27.650Z,2.80
2022-08-05T10:12:30.414Z,2.60
2022-08-05T10:15:36.787Z,2.50
2022-08-05T10:18:22.568Z,2.40
2022-08-05T10:20:55.523Z,2.40
2022-08-05T10:23:55.567Z,2.80
2022-08-05T10:26:17.476Z,3.30
2022-08-05T10:28:46.805Z,2.80
2022-08-05T10:32:49.009Z,2.70
2022-08-05T10:34:07.129Z,2.50
2022-08-05T10:36:41.630Z,2.70
2022-08-05T10:39:24.293Z,2.80
2022-08-05T10:42:11.971Z,2.70
2022-08-05T10:44:44.437Z,2.80
2022-08-05T10:47:26.531Z,2.60
2022-08-05T10:50:32.199Z,3.00
2022-08-05T10:53:04.154Z,2.60
2022-08-05T10:55:38.594Z,2.80
2022-08-05T10:58:20.738Z,3.10
2022-08-05T11:00:55.330Z,3.10
2022-08-05T11:03:30.992Z,3.10
2022-08-05T11:06:15.888Z,3.20
2022-08-05T11:09:16.911Z,2.90
2022-08-05T11:11:52.212Z,2.80
2022-08-05T11:17:58.829Z,2.80
2022-08-05T11:20:39.164Z,3.50
2022-08-05T11:24:03.876Z,3.00
2022-08-05T11:26:43.132Z,2.90
2022-08-05T11:29:36.410Z,3.20
2022-08-05T11:32:29.827Z,3.30
2022-08-05T11:34:58.074Z,2.90
2022-08-05T11:38:26.134Z,3.10
2022-08-05T11:41:34.206Z,2.50
2022-08-05T11:44:12.772Z,2.70
2022-08-05T11:47:11.980Z,2.50
2022-08-05T11:49:49.763Z,2.90
2022-08-05T11:52:29.270Z,2.80
2022-08-05T11:55:07.465Z,3.10
2022-08-05T11:58:08.351Z,2.80
2022-08-05T12:00:31.856Z,2.70
2022-08-05T12:03:28.818Z,2.60
2022-08-05T12:06:03.205Z,2.50
2022-08-05T12:08:49.843Z,2.10
2022-08-05T12:11:28.130Z,2.30
2022-08-05T12:14:04.027Z,2.40
2022-08-05T12:16:52.219Z,2.10
2022-08-05T12:20:27.202Z,2.60
2022-08-05T12:22:12.627Z,2.20
2022-08-05T12:24:49.385Z,2.30
2022-08-05T12:27:33.042Z,2.30
2022-08-05T12:30:15.313Z,2.40
2022-08-05T12:32:50.348Z,2.20
2022-08-05T12:35:21.673Z,2.20
2022-08-05T12:37:50.300Z,2.00
2022-08-05T12:40:26.704Z,2.10
2022-08-05T12:42:56.634Z,2.40
2022-08-05T12:45:36.963Z,2.40
2022-08-05T12:48:26.976Z,2.10
2022-08-05T12:51:21.809Z,1.90
2022-08-05T12:54:04.904Z,2.20
2022-08-05T12:56:51.009Z,2.30
2022-08-05T13:00:08.300Z,2.10
2022-08-05T13:02:27.231Z,2.30
2022-08-05T13:04:58.764Z,2.50
2022-08-05T13:10:19.611Z,2.60
2022-08-05T13:12:57.773Z,2.40
2022-08-05T13:15:41.076Z,2.30
2022-08-05T13:18:09.678Z,2.50
2022-08-05T13:20:40.417Z,2.20
2022-08-05T13:23:08.508Z,2.10
2022-08-05T13:25:51.670Z,2.30
2022-08-05T13:28:24.197Z,2.60
2022-08-05T13:30:53.423Z,2.50
2022-08-05T13:34:25.161Z,2.30
2022-08-05T13:36:10.357Z,2.30
2022-08-05T13:38:41.960Z,2.40
2022-08-05T13:41:11.754Z,2.40
2022-08-05T13:43:44.162Z,2.10
2022-08-05T13:46:30.798Z,2.50
2022-08-05T13:49:10.555Z,2.20
2022-08-05T13:51:45.755Z,2.50
2022-08-05T13:54:21.052Z,2.10
2022-08-05T13:56:53.539Z,2.20
2022-08-05T13:59:25.089Z,2.00
2022-08-05T14:02:00.331Z,2.30
2022-08-05T14:04:56.133Z,2.10
2022-08-05T14:07:59.657Z,2.40
2022-08-05T14:10:31.136Z,2.60
2022-08-05T14:12:59.960Z,2.70
2022-08-05T14:16:07.267Z,2.80
2022-08-05T14:18:23.011Z,2.40
2022-08-05T14:20:54.814Z,2.50
2022-08-05T14:23:25.762Z,2.50
2022-08-05T14:28:29.302Z,2.30
2022-08-05T14:30:58.686Z,2.60
2022-08-05T14:33:26.868Z,2.60
2022-08-05T14:35:55.012Z,2.60
2022-08-05T14:38:31.961Z,2.70
2022-08-05T14:41:07.219Z,2.90
2022-08-05T14:43:58.911Z,2.50
2022-08-05T14:46:36.145Z,3.50
2022-08-05T14:49:07.632Z,3.10
2022-08-05T14:51:38.392Z,2.80
2022-08-05T14:54:27.982Z,2.80
2022-08-05T14:56:59.494Z,2.70
2022-08-05T14:59:29.599Z,2.50
2022-08-05T15:02:24.358Z,2.70
2022-08-05T15:04:52.855Z,2.70
2022-08-05T15:08:08.899Z,2.70
2022-08-05T15:10:09.785Z,2.90
2022-08-05T15:12:57.988Z,2.70
2022-08-05T15:15:54.065Z,2.60
2022-08-05T15:18:17.245Z,2.50
2022-08-05T15:20:46.025Z,2.20
2022-08-05T15:23:14.373Z,2.80
2022-08-05T15:25:52.971Z,2.90
2022-08-05T15:28:27.148Z,2.40
2022-08-05T15:30:56.221Z,2.50
2022-08-05T15:34:18.621Z,3.00
2022-08-05T15:36:17.214Z,2.90
2022-08-05T15:41:01.464Z,2.50
2022-08-05T15:41:55.984Z,2.60
2022-08-05T15:44:27.868Z,2.60
2022-08-05T15:46:55.975Z,2.30
2022-08-05T15:49:53.726Z,2.70
2022-08-05T15:52:16.369Z,2.50
2022-08-05T15:54:45.349Z,2.80
2022-08-05T15:57:14.970Z,2.90
2022-08-05T15:59:44.420Z,3.00
2022-08-05T16:02:14.757Z,2.80
2022-08-05T16:04:48.678Z,2.70
2022-08-05T16:07:16.610Z,3.80
2022-08-05T16:09:46.071Z,5.10
2022-08-05T16:12:15.157Z,5.50
2022-08-05T16:14:43.891Z,4.70
2022-08-05T16:17:12.488Z,6.40
2022-08-05T16:20:04.390Z,5.30
2022-08-05T16:22:34.403Z,6.00
2022-08-05T16:25:05.263Z,5.30
2022-08-05T16:28:00.388Z,5.60
2022-08-05T16:30:29.158Z,6.30
2022-08-05T16:33:01.071Z,5.80
2022-08-05T16:35:32.055Z,5.60
2022-08-05T16:38:23.706Z,5.20
2022-08-05T16:40:55.288Z,5.80
2022-08-05T16:43:31.787Z,5.70
2022-08-05T16:46:13.119Z,6.60
2022-08-05T16:48:51.151Z,5.20
2022-08-05T16:51:18.977Z,4.40
2022-08-05T16:54:04.147Z,6.10
2022-08-05T16:56:37.041Z,4.30
2022-08-05T16:59:10.349Z,4.20
2022-08-05T17:01:54.043Z,4.10
2022-08-05T17:04:27.321Z,3.70
2022-08-05T17:07:03.180Z,3.40
2022-08-05T17:09:57.388Z,3.40
2022-08-05T17:12:50.319Z,3.50
2022-08-05T17:15:15.457Z,3.60
2022-08-05T17:17:58.654Z,3.80
2022-08-05T17:20:50.967Z,3.90
2022-08-05T17:23:42.018Z,3.00
2022-08-05T17:26:07.120Z,3.90
2022-08-05T17:28:37.318Z,3.50
2022-08-05T17:31:24.430Z,3.10
2022-08-05T17:34:00.267Z,3.30
2022-08-05T17:36:33.693Z,3.60
2022-08-05T17:39:05.097Z,3.20
2022-08-05T17:42:19.961Z,3.60
2022-08-05T17:44:40.581Z,3.60
2022-08-05T17:47:23.083Z,3.40
2022-08-05T17:50:03.650Z,3.20
2022-08-05T17:52:33.497Z,3.00
2022-08-05T17:55:03.022Z,3.70
2022-08-05T17:57:31.361Z,3.50
2022-08-05T18:00:04.972Z,4.10
2022-08-05T18:02:35.094Z,3.90
2022-08-05T18:05:07.640Z,3.10
2022-08-05T18:07:41.796Z,3.90
2022-08-05T18:10:20.454Z,3.70
2022-08-05T18:12:49.895Z,3.90
2022-08-05T18:15:18.115Z,3.40
2022-08-05T18:17:59.723Z,4.20
2022-08-05T18:20:32.724Z,3.60
2022-08-05T18:23:11.883Z,3.90
2022-08-05T18:25:44.086Z,3.40
2022-08-05T18:28:16.661Z,3.80
2022-08-05T18:30:51.301Z,4.10
2022-08-05T18:33:23.000Z,3.70
2022-08-05T18:36:03.320Z,3.80
2022-08-05T18:38:37.561Z,3.80
2022-08-05T18:41:53.561Z,3.60
2022-08-05T18:43:57.458Z,4.10
2022-08-05T18:46:36.233Z,4.10
2022-08-05T18:49:30.431Z,3.80
2022-08-05T18:52:18.748Z,3.80
2022-08-05T18:55:04.820Z,3.80
2022-08-05T18:57:42.912Z,3.80
2022-08-05T19:00:20.326Z,4.60
2022-08-05T19:02:48.721Z,4.40
2022-08-05T19:06:13.417Z,4.50
2022-08-05T19:08:13.378Z,4.40
2022-08-05T19:10:41.751Z,4.40
2022-08-05T19:13:12.369Z,4.50
2022-08-05T19:15:59.020Z,4.00
2022-08-05T19:18:32.130Z,4.10
2022-08-05T19:20:59.932Z,3.90
2022-08-05T19:24:07.210Z,4.00
2022-08-05T19:26:17.551Z,4.10
2022-08-05T19:28:46.839Z,3.90
2022-08-05T19:31:17.922Z,4.40
2022-08-05T19:33:56.124Z,3.40
2022-08-05T19:36:26.139Z,3.40
2022-08-05T19:39:00.555Z,3.20
2022-08-05T19:41:34.672Z,4.10
2022-08-05T19:44:19.245Z,3.50
2022-08-05T19:46:47.389Z,3.30
2022-08-05T19:49:18.839Z,3.80
2022-08-05T19:52:08.266Z,3.50
2022-08-05T19:54:35.787Z,3.40
2022-08-05T19:57:12.449Z,3.30
2022-08-05T19:59:56.736Z,3.80
2022-08-05T20:02:35.873Z,3.60
2022-08-05T20:05:06.157Z,3.60
2022-08-05T20:07:48.160Z,3.20
2022-08-05T20:10:17.528Z,3.30
2022-08-05T20:12:50.831Z,3.40
2022-08-05T20:15:23.261Z,3.60
2022-08-05T20:18:33.374Z,3.80
2022-08-05T20:20:58.258Z,3.60
2022-08-05T20:23:39.505Z,3.50
2022-08-05T20:26:23.349Z,3.50
2022-08-05T20:28:57.077Z,4.10
2022-08-05T20:31:36.773Z,3.80
2022-08-05T20:34:12.548Z,3.80
2022-08-05T20:36:43.445Z,4.10
2022-08-05T20:39:16.093Z,3.60
2022-08-05T20:41:47.978Z,4.50
2022-08-05T20:44:29.478Z,3.90
2022-08-05T20:47:04.575Z,4.10
2022-08-05T20:49:39.681Z,4.30
2022-08-05T20:52:08.991Z,4.10
2022-08-05T20:54:43.541Z,5.10
2022-08-05T20:57:44.135Z,4.30
2022-08-05T21:00:40.431Z,3.90
2022-08-05T21:03:06.350Z,4.30
2022-08-05T21:05:53.615Z,4.30
2022-08-05T21:08:41.285Z,4.10
2022-08-05T21:11:12.425Z,4.30
2022-08-05T21:13:47.821Z,5.00
2022-08-05T21:16:29.779Z,4.40
2022-08-05T21:19:01.992Z,4.50
2022-08-05T21:21:43.730Z,4.60
2022-08-05T21:24:15.351Z,4.50
2022-08-05T21:26:53.210Z,4.90
2022-08-05T21:29:26.527Z,4.90
2022-08-05T21:32:04.210Z,5.20
2022-08-05T21:34:32.924Z,4.50
2022-08-05T21:37:05.030Z,4.60
2022-08-05T21:39:34.781Z,4.80
2022-08-05T21:42:30.516Z,4.80
2022-08-05T21:44:57.561Z,4.20
2022-08-05T21:47:54.753Z,4.20
2022-08-05T21:50:15.144Z,4.90
2022-08-05T21:52:47.385Z,4.90
2022-08-05T21:55:15.550Z,4.30
2022-08-05T21:57:45.658Z,4.70
2022-08-05T22:00:15.032Z,4.90
2022-08-05T22:02:43.884Z,4.90
2022-08-05T22:05:14.244Z,4.80
2022-08-05T22:07:59.105Z,4.60
2022-08-05T22:10:28.349Z,4.80
2022-08-05T22:12:59.033Z,5.30
2022-08-05T22:15:57.209Z,4.50
2022-08-05T22:18:27.234Z,4.80
2022-08-05T22:20:55.869Z,4.50
2022-08-05T22:24:01.993Z,4.90
2022-08-05T22:26:50.502Z,4.60
2022-08-05T22:29:26.774Z,4.80
2022-08-05T22:32:55.066Z,5.20
2022-08-05T22:35:15.203Z,5.10
2022-08-05T22:37:59.231Z,4.50
2022-08-05T22:40:31.506Z,5.10
2022-08-05T22:42:59.706Z,4.70
2022-08-05T22:45:27.839Z,4.60
2022-08-05T22:48:01.625Z,4.30
2022-08-05T22:50:30.035Z,4.90
2022-08-05T22:52:58.080Z,4.50
2022-08-05T22:55:26.255Z,4.60
2022-08-05T22:57:55.102Z,4.70
2022-08-05T23:00:23.930Z,4.30
2022-08-05T23:03:57.873Z,4.70
2022-08-05T23:06:27.475Z,4.10
2022-08-05T23:08:56.710Z,4.70
2022-08-05T23:11:46.582Z,4.70
2022-08-05T23:14:22.726Z,4.10
2022-08-05T23:17:24.388Z,4.50
2022-08-05T23:20:02.369Z,4.30
2022-08-05T23:22:32.304Z,4.30
2022-08-05T23:25:00.990Z,4.20
2022-08-05T23:27:42.205Z,4.10
2022-08-05T23:30:11.163Z,4.10
2022-08-05T23:32:45.058Z,4.40
2022-08-05T23:35:13.246Z,4.00
2022-08-05T23:37:41.381Z,4.20
2022-08-05T23:40:13.667Z,3.90
2022-08-05T23:42:41.835Z,4.20
2022-08-05T23:45:15.955Z,4.30
2022-08-05T23:47:47.968Z,4.70
2022-08-05T23:52:49.796Z,4.50
2022-08-05T23:55:19.299Z,5.00
2022-08-05T23:57:51.058Z,4.70
